createdAt,value
2019-04-14T00:02:06.080Z,36.83
2019-04-14T00:05:33.712Z,38.87
2019-04-14T00:08:56.502Z,37.07
2019-04-14T00:12:20.768Z,36.57
2019-04-14T00:15:47.005Z,33.67
2019-04-14T00:19:09.131Z,32.33
2019-04-14T00:22:33.332Z,29.93
2019-04-14T00:26:24.900Z,27.77
2019-04-14T00:29:48.027Z,30.30
2019-04-14T00:33:13.205Z,30.70
2019-04-14T00:36:54.589Z,29.43
2019-04-14T00:40:29.990Z,31.33
2019-04-14T00:44:14.649Z,29.43
2019-04-14T00:47:51.743Z,31.90
2019-04-14T00:51:06.964Z,28.90
2019-04-14T00:54:30.474Z,29.37
2019-04-14T00:57:55.134Z,31.40
2019-04-14T01:01:19.747Z,29.03
2019-04-14T01:04:42.823Z,32.67
2019-04-14T01:08:05.799Z,31.43
2019-04-14T01:11:29.163Z,31.50
2019-04-14T01:14:53.783Z,32.67
2019-04-14T01:18:21.135Z,33.87
2019-04-14T01:21:44.331Z,36.53
2019-04-14T01:25:08.588Z,36.47
2019-04-14T01:28:32.970Z,34.77
2019-04-14T01:31:56.203Z,36.50
2019-04-14T01:35:20.287Z,35.10
2019-04-14T01:38:43.413Z,36.30
2019-04-14T01:42:07.124Z,37.97
2019-04-14T01:45:31.647Z,37.70
2019-04-14T01:48:54.800Z,38.43
2019-04-14T01:52:41.945Z,38.47
2019-04-14T01:56:12.336Z,37.37
2019-04-14T01:59:35.463Z,37.93
2019-04-14T02:02:59.714Z,37.73
2019-04-14T02:06:22.909Z,39.57
2019-04-14T02:09:49.507Z,38.00
2019-04-14T02:13:13.553Z,38.37
2019-04-14T02:16:41.963Z,41.17
2019-04-14T02:20:03.209Z,39.27
2019-04-14T02:23:27.901Z,41.37
2019-04-14T02:26:50.989Z,41.87
2019-04-14T02:30:19.577Z,41.90
2019-04-14T02:34:00.801Z,40.57
2019-04-14T02:41:07.351Z,41.80
2019-04-14T02:44:27.017Z,42.10
2019-04-14T02:51:12.491Z,40.20
2019-04-14T02:54:48.057Z,40.80
2019-04-14T02:58:01.671Z,40.27
2019-04-14T03:01:32.863Z,41.50
2019-04-14T03:04:54.405Z,40.50
2019-04-14T03:08:16.994Z,41.73
2019-04-14T03:11:44.425Z,41.97
2019-04-14T03:18:52.424Z,42.83
2019-04-14T03:22:43.815Z,41.77
2019-04-14T03:26:29.456Z,40.97
2019-04-14T03:30:30.258Z,40.97
2019-04-14T03:37:31.059Z,42.97
2019-04-14T03:40:28.046Z,43.83
2019-04-14T03:44:01.267Z,47.07
2019-04-14T03:50:45.970Z,48.07
2019-04-14T03:54:01.669Z,48.90
2019-04-14T03:57:04.391Z,46.37
2019-04-14T04:00:27.432Z,44.60
2019-04-14T04:03:50.416Z,45.70
2019-04-14T04:07:13.444Z,43.53
2019-04-14T04:10:37.908Z,43.67
2019-04-14T04:14:01.306Z,43.83
2019-04-14T04:18:04.782Z,45.90
2019-04-14T04:21:48.703Z,45.50
2019-04-14T04:25:18.268Z,42.00
2019-04-14T04:29:01.003Z,43.07
2019-04-14T04:32:32.654Z,39.10
2019-04-14T04:35:59.341Z,41.90
2019-04-14T04:39:34.631Z,41.97
2019-04-14T04:42:57.000Z,42.43
2019-04-14T04:46:20.358Z,42.87
2019-04-14T04:49:44.614Z,43.20
2019-04-14T04:53:08.978Z,39.60
2019-04-14T04:56:32.148Z,39.97
2019-04-14T04:59:56.234Z,41.13
2019-04-14T05:03:19.349Z,38.53
2019-04-14T05:06:57.223Z,41.03
2019-04-14T05:10:35.001Z,37.50
2019-04-14T05:14:00.069Z,38.47
2019-04-14T05:17:23.801Z,41.33
2019-04-14T05:20:49.181Z,44.27
2019-04-14T05:24:13.538Z,42.93
2019-04-14T05:27:36.808Z,44.73
2019-04-14T05:31:01.103Z,41.90
2019-04-14T05:34:26.080Z,43.73
2019-04-14T05:37:49.230Z,40.73
2019-04-14T05:41:13.581Z,39.60
2019-04-14T05:44:36.884Z,38.03
2019-04-14T05:48:00.988Z,37.07
2019-04-14T05:51:26.298Z,35.20
2019-04-14T05:54:49.716Z,40.27
2019-04-14T05:58:12.692Z,35.00
2019-04-14T06:01:36.590Z,35.13
2019-04-14T06:05:00.457Z,36.20
2019-04-14T06:08:24.501Z,38.20
2019-04-14T06:11:50.701Z,38.77
2019-04-14T06:15:14.250Z,34.00
2019-04-14T06:18:37.309Z,36.03
2019-04-14T06:22:00.327Z,39.13
2019-04-14T06:25:23.355Z,36.83
2019-04-14T06:28:48.579Z,37.40
2019-04-14T06:32:34.204Z,36.17
2019-04-14T06:36:19.056Z,34.63
2019-04-14T06:39:44.772Z,36.67
2019-04-14T06:43:08.268Z,35.03
2019-04-14T06:46:31.409Z,37.40
2019-04-14T06:49:54.458Z,41.10
2019-04-14T06:53:18.136Z,40.30
2019-04-14T06:56:41.425Z,39.10
2019-04-14T07:00:04.762Z,45.00
2019-04-14T07:03:28.613Z,40.83
2019-04-14T07:06:51.886Z,42.67
2019-04-14T07:10:14.860Z,45.20
2019-04-14T07:13:40.113Z,48.47
2019-04-14T07:17:04.142Z,42.73
2019-04-14T07:20:27.126Z,43.67
2019-04-14T07:23:50.216Z,43.13
2019-04-14T07:27:13.230Z,39.40
2019-04-14T07:31:01.202Z,39.23
2019-04-14T07:34:41.108Z,37.97
2019-04-14T07:38:24.657Z,35.97
2019-04-14T07:41:53.841Z,34.37
2019-04-14T07:45:26.984Z,35.33
2019-04-14T07:48:55.528Z,36.50
2019-04-14T07:52:37.110Z,33.53
2019-04-14T07:56:14.098Z,33.03
2019-04-14T07:59:52.556Z,36.20
2019-04-14T08:03:32.652Z,32.37
2019-04-14T08:06:57.844Z,32.20
2019-04-14T08:10:20.907Z,31.73
2019-04-14T08:13:44.007Z,30.80
2019-04-14T08:17:07.184Z,34.80
2019-04-14T08:20:30.522Z,35.00
2019-04-14T08:23:53.581Z,31.93
2019-04-14T08:27:16.674Z,31.03
2019-04-14T08:30:39.719Z,30.33
2019-04-14T08:34:02.884Z,31.53
2019-04-14T08:37:25.906Z,27.77
2019-04-14T08:40:49.816Z,29.37
2019-04-14T08:44:27.409Z,29.80
2019-04-14T08:47:59.828Z,29.27
2019-04-14T08:51:48.495Z,28.40
2019-04-14T08:55:21.266Z,29.63
2019-04-14T08:59:03.920Z,26.53
2019-04-14T09:02:56.731Z,28.10
2019-04-14T09:06:35.135Z,27.60
2019-04-14T09:10:14.323Z,31.47
2019-04-14T09:13:37.506Z,29.37
2019-04-14T09:17:01.394Z,27.87
2019-04-14T09:20:24.493Z,26.90
2019-04-14T09:23:48.068Z,26.87
2019-04-14T09:27:11.073Z,30.03
2019-04-14T09:30:34.045Z,30.30
2019-04-14T09:34:00.158Z,33.23
2019-04-14T09:37:23.274Z,28.33
2019-04-14T09:40:46.435Z,27.13
2019-04-14T09:44:09.493Z,26.47
2019-04-14T09:47:32.634Z,23.27
2019-04-14T09:51:04.784Z,23.73
2019-04-14T09:54:22.893Z,22.80
2019-04-14T09:57:45.995Z,22.47
2019-04-14T10:01:09.241Z,21.70
2019-04-14T10:04:32.625Z,19.92
2019-04-14T10:07:55.682Z,19.92
2019-04-14T10:11:21.116Z,16.70
2019-04-14T10:14:44.269Z,17.25
2019-04-14T10:18:07.725Z,19.85
2019-04-14T10:21:30.895Z,17.67
2019-04-14T10:24:54.364Z,16.35
2019-04-14T10:28:17.652Z,18.07
2019-04-14T10:31:40.959Z,17.95
2019-04-14T10:35:04.276Z,18.60
2019-04-14T10:38:30.491Z,16.15
2019-04-14T10:41:54.220Z,15.90
2019-04-14T10:45:18.502Z,16.15
2019-04-14T10:48:41.573Z,16.80
2019-04-14T10:52:04.877Z,16.10
2019-04-14T10:55:30.953Z,16.48
2019-04-14T10:58:54.098Z,17.67
2019-04-14T11:02:17.161Z,16.50
2019-04-14T11:05:49.251Z,17.27
2019-04-14T11:09:16.048Z,17.67
2019-04-14T11:12:39.095Z,16.40
2019-04-14T11:16:02.214Z,16.42
2019-04-14T11:19:25.359Z,16.42
2019-04-14T11:22:49.473Z,16.97
2019-04-14T11:26:12.576Z,15.85
2019-04-14T11:29:35.788Z,14.93
2019-04-14T11:33:17.061Z,15.23
2019-04-14T11:36:49.708Z,15.28
2019-04-14T11:40:15.624Z,16.15
2019-04-14T11:43:38.779Z,16.35
2019-04-14T11:47:02.919Z,16.67
2019-04-14T11:50:28.466Z,17.17
2019-04-14T11:53:51.513Z,15.95
2019-04-14T11:57:14.668Z,16.20
2019-04-14T12:00:57.732Z,14.90
2019-04-14T12:04:27.774Z,16.57
2019-04-14T12:08:01.029Z,15.30
2019-04-14T12:11:24.183Z,16.80
2019-04-14T12:14:47.282Z,15.95
2019-04-14T12:18:10.390Z,15.68
2019-04-14T12:21:33.437Z,15.58
2019-04-14T12:24:58.915Z,13.93
2019-04-14T12:28:22.010Z,14.75
2019-04-14T12:31:46.485Z,14.78
2019-04-14T12:35:10.503Z,14.40
2019-04-14T12:38:33.685Z,14.25
2019-04-14T12:42:26.680Z,14.70
2019-04-14T12:46:08.294Z,15.45
2019-04-14T12:49:36.284Z,14.95
2019-04-14T12:52:59.305Z,15.65
2019-04-14T12:56:25.010Z,15.55
2019-04-14T12:59:48.423Z,15.72
2019-04-14T13:03:11.435Z,15.32
2019-04-14T13:06:34.600Z,14.75
2019-04-14T13:09:58.965Z,15.85
2019-04-14T13:13:21.981Z,15.90
2019-04-14T13:16:46.138Z,16.10
2019-04-14T13:20:09.526Z,16.27
2019-04-14T13:23:32.707Z,16.45
2019-04-14T13:26:55.876Z,15.60
2019-04-14T13:30:27.097Z,16.85
2019-04-14T13:33:50.201Z,16.25
2019-04-14T13:37:13.552Z,16.93
2019-04-14T13:40:36.562Z,18.75
2019-04-14T13:43:59.872Z,17.17
2019-04-14T13:47:22.871Z,18.42
2019-04-14T13:50:46.191Z,17.52
2019-04-14T13:54:09.236Z,18.50
2019-04-14T13:57:32.298Z,17.85
2019-04-14T14:00:55.397Z,17.95
2019-04-14T14:04:18.773Z,19.40
2019-04-14T14:07:41.847Z,18.62
2019-04-14T14:11:42.760Z,18.65
2019-04-14T14:15:25.337Z,16.95
2019-04-14T14:19:04.804Z,18.32
2019-04-14T14:22:59.276Z,18.52
2019-04-14T14:26:19.328Z,17.55
2019-04-14T14:29:42.407Z,19.75
2019-04-14T14:33:05.637Z,17.92
2019-04-14T14:36:29.076Z,20.40
2019-04-14T14:39:53.146Z,19.40
2019-04-14T14:43:16.234Z,19.20
2019-04-14T14:46:45.409Z,17.55
2019-04-14T14:50:17.667Z,19.02
2019-04-14T14:53:40.857Z,17.50
2019-04-14T14:57:04.105Z,17.23
2019-04-14T15:00:30.329Z,17.27
2019-04-14T15:03:53.429Z,19.73
2019-04-14T15:07:16.784Z,17.07
2019-04-14T15:10:39.808Z,17.75
2019-04-14T15:14:03.660Z,16.55
2019-04-14T15:17:29.860Z,16.48
2019-04-14T15:20:52.888Z,17.70
2019-04-14T15:24:15.920Z,16.87
2019-04-14T15:27:39.128Z,15.25
2019-04-14T15:31:02.338Z,15.35
2019-04-14T15:34:28.994Z,15.60
2019-04-14T15:37:52.250Z,14.28
2019-04-14T15:41:15.430Z,15.60
2019-04-14T15:44:38.574Z,17.05
2019-04-14T15:48:01.687Z,16.60
2019-04-14T15:51:29.312Z,16.20
2019-04-14T15:54:52.663Z,14.80
2019-04-14T15:58:24.645Z,16.40
2019-04-14T16:02:09.936Z,16.23
2019-04-14T16:05:48.587Z,15.85
2019-04-14T16:09:49.559Z,14.65
2019-04-14T16:13:28.980Z,14.85
2019-04-14T16:17:10.219Z,14.10
2019-04-14T16:20:35.710Z,13.32
2019-04-14T16:23:59.043Z,15.48
2019-04-14T16:27:57.098Z,16.15
2019-04-14T16:31:38.340Z,14.15
2019-04-14T16:35:08.942Z,15.00
2019-04-14T16:38:32.829Z,13.72
2019-04-14T16:41:57.761Z,14.60
2019-04-14T16:45:22.759Z,14.83
2019-04-14T16:48:46.279Z,15.03
2019-04-14T16:52:27.742Z,15.35
2019-04-14T16:56:17.972Z,14.68
2019-04-14T16:59:51.841Z,13.13
2019-04-14T17:03:14.898Z,15.08
2019-04-14T17:06:37.927Z,14.85
2019-04-14T17:10:01.081Z,14.55
2019-04-14T17:13:29.481Z,14.47
2019-04-14T17:17:10.671Z,15.63
2019-04-14T17:21:02.029Z,16.45
2019-04-14T17:24:38.892Z,14.60
2019-04-14T17:28:21.482Z,14.68
2019-04-14T17:32:06.640Z,15.13
2019-04-14T17:35:49.356Z,15.30
2019-04-14T17:39:25.527Z,15.83
2019-04-14T17:43:05.299Z,15.03
2019-04-14T17:47:00.179Z,12.97
2019-04-14T17:50:39.985Z,13.93
2019-04-14T17:54:03.238Z,14.83
2019-04-14T17:57:44.946Z,14.83
2019-04-14T18:01:42.804Z,14.83
2019-04-14T18:05:14.980Z,13.63
2019-04-14T18:09:01.446Z,14.37
2019-04-14T18:12:36.028Z,15.03
2019-04-14T18:16:21.590Z,13.07
2019-04-14T18:19:59.743Z,15.03
2019-04-14T18:23:22.877Z,12.47
2019-04-14T18:26:45.942Z,13.47
2019-04-14T18:30:18.264Z,11.80
2019-04-14T18:34:12.417Z,13.97
2019-04-14T18:38:06.093Z,12.97
2019-04-14T18:41:39.409Z,13.33
2019-04-14T18:45:15.059Z,12.50
2019-04-14T18:48:57.851Z,14.20
2019-04-14T18:52:38.744Z,13.63
2019-04-14T18:56:19.392Z,12.90
2019-04-14T19:00:20.756Z,13.97
2019-04-14T19:03:44.209Z,13.03
2019-04-14T19:07:07.453Z,13.73
2019-04-14T19:10:30.973Z,13.00
2019-04-14T19:13:55.370Z,13.43
2019-04-14T19:17:27.780Z,14.63
2019-04-14T19:20:55.821Z,12.47
2019-04-14T19:24:23.084Z,13.60
2019-04-14T19:27:46.289Z,14.07
2019-04-14T19:31:09.747Z,15.03
2019-04-14T19:34:33.062Z,14.67
2019-04-14T19:37:58.871Z,15.03
2019-04-14T19:41:30.147Z,13.90
2019-04-14T19:44:50.105Z,13.73
2019-04-14T19:48:18.065Z,13.53
2019-04-14T19:51:41.211Z,14.57
2019-04-14T19:55:04.644Z,12.20
2019-04-14T19:58:29.974Z,13.60
2019-04-14T20:01:53.199Z,14.37
2019-04-14T20:05:16.406Z,14.90
2019-04-14T20:08:39.623Z,14.37
2019-04-14T20:12:04.186Z,13.50
2019-04-14T20:15:33.797Z,13.77
2019-04-14T20:19:11.027Z,14.50
2019-04-14T20:23:08.935Z,14.77
2019-04-14T20:26:50.584Z,15.03
2019-04-14T20:30:22.267Z,14.70
2019-04-14T20:33:45.437Z,14.37
2019-04-14T20:37:09.414Z,14.30
2019-04-14T20:40:32.452Z,16.73
2019-04-14T20:44:01.885Z,14.50
2019-04-14T20:47:31.306Z,15.97
2019-04-14T20:50:54.397Z,14.93
2019-04-14T20:54:17.835Z,16.20
2019-04-14T20:57:41.718Z,17.03
2019-04-14T21:01:09.734Z,16.63
2019-04-14T21:04:49.850Z,16.50
2019-04-14T21:08:42.286Z,14.83
2019-04-14T21:12:29.566Z,12.27
2019-04-14T21:16:12.490Z,11.47
2019-04-14T21:19:47.825Z,10.20
2019-04-14T21:23:36.260Z,11.37
2019-04-14T21:27:07.672Z,12.50
2019-04-14T21:30:41.176Z,12.77
2019-04-14T21:34:14.371Z,12.37
2019-04-14T21:38:06.303Z,14.13
2019-04-14T21:41:30.034Z,15.33
2019-04-14T21:44:53.094Z,14.40
2019-04-14T21:48:16.181Z,13.40
2019-04-14T21:52:03.400Z,13.33
2019-04-14T21:55:29.790Z,14.17
2019-04-14T21:59:12.628Z,16.43
2019-04-14T22:02:54.075Z,15.70
2019-04-14T22:06:23.177Z,16.80
2019-04-14T22:09:46.893Z,16.27
2019-04-14T22:13:10.198Z,17.13
2019-04-14T22:16:33.399Z,16.23
2019-04-14T22:19:59.761Z,17.07
2019-04-14T22:23:25.072Z,15.57
2019-04-14T22:26:48.343Z,15.93
2019-04-14T22:30:11.973Z,16.90
2019-04-14T22:33:35.556Z,15.70
2019-04-14T22:36:58.787Z,15.77
2019-04-14T22:40:21.877Z,14.27
2019-04-14T22:43:45.171Z,16.13
2019-04-14T22:47:08.606Z,15.10
2019-04-14T22:50:31.572Z,14.67
2019-04-14T22:53:54.814Z,15.50
2019-04-14T22:57:18.341Z,15.23
2019-04-14T23:00:49.526Z,15.50
2019-04-14T23:04:34.590Z,14.03
2019-04-14T23:08:09.350Z,14.63
2019-04-14T23:11:55.043Z,14.63
2019-04-14T23:15:35.176Z,14.97
2019-04-14T23:19:13.007Z,14.30
2019-04-14T23:22:54.705Z,14.77
2019-04-14T23:26:18.653Z,14.20
2019-04-14T23:29:42.063Z,13.47
2019-04-14T23:33:05.307Z,14.53
2019-04-14T23:36:31.248Z,13.43
2019-04-14T23:39:54.624Z,13.40
2019-04-14T23:43:18.013Z,12.73
2019-04-14T23:46:41.523Z,12.23
2019-04-14T23:50:04.962Z,11.87
2019-04-14T23:53:29.659Z,11.60
2019-04-14T23:57:04.880Z,13.90
